Southeast Texas Regional Airport
KBPT : rendu visible

Aérodrome :











RETROUVEZ-NOUS SUR...

 
LOGIN :

S'inscrire | Disclaimer

   EN    FR    IT 

 









Légende :    VFR   VFR Marginal   IFR   IFR Intensif   IFR Très Intensif
Visi : 
Plafond : 
>= 8 km
>= 3000ft
5 à 8 km
1000 à 3000 ft
1500m à 5 km
500 à 1000 ft
800 à 1500m
200 à 500 ft
< 800m
< 200 ft
Symboles :   Orages  Brouillard  Fortes neiges  Fortes précipitations  Vent > 20 kt






- Altitude de l'aérodrome : 15 ft
- Code IATA : BPT


KBPT - Southeast Texas Regional

DERNIER METAR :
  • 210253Z 03004KT 10SM CLR 08/00 A3049 RMK AO2 SLP324 T00830000 50006

METARs EXPIRÉS :
  • 210153Z 01006KT 10SM CLR 09/00 A3049 RMK AO2 SLP324 T00890000
  • 210053Z 01006KT 10SM CLR 10/M01 A3049 RMK AO2 SLP323 T01001011

TAF KBPT
Valide du 21 à 00h jusqu'au 22 à 00h UTC


202320Z 2100/2124 01009KT P6SM SKC
FM210100 03004KT P6SM SKC
FM211500 06009KT P6SM SCT250



MET'MAP, la Météo Aéronautique d'un coup d'oeil ! - Copyright ORBIFLY Décembre 2007 - Disclaimer

ORBIFLY MET'MAP TEAM :

Programmation & Développement : Alexandra Zaïnal
Sur une idée originale de : Baudouin d'Aumeries
Assistance à la programmation : Marc-Olivier Méhu
Soutien technique & logistique : Manuel Goepfert

Contact : metmap@orbifly.com




SOURCES & CREDITS :

   NOAA       Earth
Advisory